Time;durP1;ratioP1;P1;durP2;ratioP2;P2;SDS_P1;SDS_P2;PMS_P1;PMS_P2;Temp;Humidity;BMP_temperature;BMP_pressure;BME280_temperature;BME280_humidity;BME280_pressure;Samples;Min_cycle;Max_cycle;Signal;HPM_P1;HPM_P2
2023/01/21 00:00:04;;;;;;;32.83;20.45;;;2.30;99.90;;;;;;5012027;28;20017;-74
2023/01/21 00:02:30;;;;;;;34.05;21.58;;;2.30;99.90;;;;;;5005232;28;20030;-74
2023/01/21 00:04:56;;;;;;;34.03;19.45;;;2.40;99.90;;;;;;5013236;28;20042;-74
2023/01/21 00:07:22;;;;;;;33.08;20.35;;;2.40;99.90;;;;;;5014139;28;20038;-74
2023/01/21 00:09:48;;;;;;;34.97;20.60;;;2.40;99.90;;;;;;5013221;28;20064;-74
2023/01/21 00:12:14;;;;;;;37.65;21.13;;;2.40;99.90;;;;;;5014669;28;20057;-73
2023/01/21 00:14:40;;;;;;;32.47;21.20;;;2.50;99.90;;;;;;5012464;28;20032;-73
2023/01/21 00:17:06;;;;;;;34.30;21.27;;;2.50;99.90;;;;;;5013226;28;20038;-75
2023/01/21 00:19:32;;;;;;;29.95;19.83;;;2.60;99.90;;;;;;5013052;28;20026;-73
2023/01/21 00:21:57;;;;;;;29.10;18.50;;;2.60;99.90;;;;;;5012893;28;20377;-74
2023/01/21 00:24:23;;;;;;;34.50;20.15;;;2.60;99.90;;;;;;5013075;28;20075;-75
2023/01/21 00:26:51;;;;;;;33.75;19.42;;;2.60;99.90;;;;;;5012517;28;20508;-74
2023/01/21 00:29:17;;;;;;;35.60;20.33;;;2.60;99.90;;;;;;5012470;28;20080;-76
2023/01/21 00:31:43;;;;;;;30.42;19.10;;;2.60;99.90;;;;;;5018801;28;20041;-75
2023/01/21 00:34:10;;;;;;;30.52;18.95;;;2.60;99.90;;;;;;5013629;28;20027;-73
2023/01/21 00:36:36;;;;;;;28.00;17.67;;;2.60;99.90;;;;;;5012531;28;20037;-75
2023/01/21 00:39:01;;;;;;;29.38;18.30;;;2.70;99.90;;;;;;5014032;28;20025;-74
2023/01/21 00:41:27;;;;;;;28.80;17.83;;;2.70;99.90;;;;;;5014311;28;20504;-74
2023/01/21 00:43:53;;;;;;;26.17;16.38;;;2.80;99.90;;;;;;5012384;28;20029;-74
2023/01/21 00:46:19;;;;;;;26.52;16.52;;;2.80;99.90;;;;;;5012056;28;20026;-73
2023/01/21 00:48:45;;;;;;;25.92;16.58;;;2.70;99.90;;;;;;5005229;28;20097;-73
2023/01/21 00:51:11;;;;;;;26.20;16.52;;;2.80;99.90;;;;;;5006965;28;20065;-74
2023/01/21 00:53:40;;;;;;;24.77;15.40;;;2.80;99.90;;;;;;5015079;28;20431;-73
2023/01/21 00:56:11;;;;;;;29.63;17.40;;;2.70;99.90;;;;;;5017023;28;20122;-75
2023/01/21 00:58:38;;;;;;;26.13;15.70;;;2.70;99.90;;;;;;5018397;28;20034;-75
2023/01/21 01:01:09;;;;;;;27.50;16.92;;;2.70;99.90;;;;;;5017056;28;20022;-74
2023/01/21 01:03:36;;;;;;;28.88;19.15;;;2.70;99.90;;;;;;5016663;28;20036;-73
2023/01/21 01:06:19;;;;;;;28.90;17.13;;;2.70;99.90;;;;;;5009603;28;20030;-73
2023/01/21 01:08:45;;;;;;;;;;;2.70;99.90;;;;;;5005815;28;20022;-73
2023/01/21 01:11:12;;;;;;;31.23;18.67;;;2.70;99.90;;;;;;5012671;28;20229;-73
2023/01/21 01:13:39;;;;;;;28.80;17.08;;;2.60;99.90;;;;;;5012548;28;20397;-73
2023/01/21 01:16:05;;;;;;;26.13;16.10;;;2.60;99.90;;;;;;5019625;28;20473;-74
2023/01/21 01:18:35;;;;;;;28.45;18.45;;;2.40;99.90;;;;;;5014161;28;20038;-73
2023/01/21 01:21:02;;;;;;;27.70;18.08;;;2.40;99.90;;;;;;5000200;28;20121;-73
2023/01/21 01:23:28;;;;;;;36.80;21.25;;;2.40;99.90;;;;;;5016270;28;20022;-73
2023/01/21 01:26:03;;;;;;;37.17;21.55;;;2.50;99.90;;;;;;5028316;28;20481;-73
2023/01/21 01:28:30;;;;;;;29.30;18.92;;;2.50;99.90;;;;;;5013155;28;20036;-73
2023/01/21 01:30:56;;;;;;;29.63;18.30;;;2.50;99.90;;;;;;5015367;28;20032;-73
2023/01/21 01:33:23;;;;;;;29.23;17.63;;;2.50;99.90;;;;;;5012379;28;20028;-74
2023/01/21 01:35:49;;;;;;;28.13;18.45;;;2.60;99.90;;;;;;5012464;28;20072;-73
2023/01/21 01:38:18;;;;;;;28.55;18.25;;;2.60;99.90;;;;;;5012021;28;20026;-73
2023/01/21 01:40:45;;;;;;;28.23;17.85;;;2.60;99.90;;;;;;5012273;28;20022;-74
2023/01/21 01:43:17;;;;;;;30.55;18.50;;;2.60;99.90;;;;;;5002065;28;20120;-74
2023/01/21 01:45:44;;;;;;;26.92;17.55;;;2.70;99.90;;;;;;5012712;28;20018;-77
2023/01/21 01:48:18;;;;;;;30.05;18.60;;;2.70;99.90;;;;;;5012284;28;20061;-77
2023/01/21 01:50:46;;;;;;;26.70;17.92;;;2.80;99.90;;;;;;5020002;28;20133;-74
2023/01/21 01:53:14;;;;;;;32.03;20.20;;;2.80;99.90;;;;;;5012213;28;20120;-74
2023/01/21 01:55:40;;;;;;;31.20;17.80;;;2.80;99.90;;;;;;5012627;28;20033;-74
2023/01/21 01:58:13;;;;;;;27.80;18.52;;;2.70;99.90;;;;;;5012124;28;20026;-74
2023/01/21 02:00:39;;;;;;;30.50;19.15;;;2.80;99.90;;;;;;5012049;28;20026;-74
2023/01/21 02:05:52;;;;;;;30.17;20.52;;;2.80;99.90;;;;;;5044135;28;20038;-73
2023/01/21 02:08:18;;;;;;;31.52;20.42;;;2.70;99.90;;;;;;5013362;28;20029;-74
2023/01/21 02:10:44;;;;;;;32.35;19.60;;;2.50;99.90;;;;;;5013729;28;20075;-73
2023/01/21 02:13:11;;;;;;;33.05;19.98;;;2.50;99.90;;;;;;5011754;28;20080;-74
2023/01/21 02:15:44;;;;;;;32.45;19.42;;;2.50;99.90;;;;;;5011393;28;20096;-74
2023/01/21 02:18:28;;;;;;;29.67;18.88;;;2.60;99.90;;;;;;5009123;28;20397;-75
2023/01/21 02:21:05;;;;;;;28.73;18.70;;;2.50;99.90;;;;;;5009129;28;20026;-74
2023/01/21 02:24:08;;;;;;;30.85;19.23;;;2.50;99.90;;;;;;5003829;28;20079;-74
2023/01/21 02:26:56;;;;;;;39.50;21.42;;;2.60;99.90;;;;;;5000919;28;20441;-76
2023/01/21 02:29:54;;;;;;;30.92;20.60;;;2.60;99.90;;;;;;5010811;28;20034;-74
2023/01/21 02:32:26;;;;;;;28.92;18.48;;;2.70;99.90;;;;;;4997856;28;20117;-77
2023/01/21 02:35:13;;;;;;;33.13;19.48;;;2.70;99.90;;;;;;4999881;28;20038;-75
2023/01/21 02:38:05;;;;;;;31.17;18.90;;;2.80;99.90;;;;;;4997763;28;20109;-73
2023/01/21 02:40:54;;;;;;;33.80;21.95;;;2.80;99.90;;;;;;4968721;28;20563;-74
2023/01/21 02:43:48;;;;;;;32.92;19.88;;;2.80;99.90;;;;;;4967612;28;20050;-76
2023/01/21 02:46:25;;;;;;;32.00;18.33;;;2.80;99.90;;;;;;4970749;28;20038;-74
2023/01/21 02:49:24;;;;;;;30.00;20.10;;;2.90;99.90;;;;;;4968128;28;20058;-74
2023/01/21 02:51:50;;;;;;;29.48;19.52;;;2.80;99.90;;;;;;4962683;28;20102;-73
2023/01/21 02:54:38;;;;;;;33.53;19.40;;;2.80;99.90;;;;;;4956623;28;20035;-73
2023/01/21 02:57:12;;;;;;;29.60;19.63;;;2.60;99.90;;;;;;4962622;28;20027;-75
2023/01/21 02:59:41;;;;;;;30.00;18.98;;;2.60;99.90;;;;;;4962643;28;20039;-74
2023/01/21 03:02:13;;;;;;;31.25;19.55;;;2.60;99.90;;;;;;4968271;28;20081;-74
2023/01/21 03:04:48;;;;;;;32.20;19.73;;;2.50;99.90;;;;;;4966391;28;20069;-74
2023/01/21 03:07:23;;;;;;;30.02;19.33;;;2.50;99.90;;;;;;4964106;28;20026;-74
2023/01/21 03:09:49;;;;;;;31.10;20.02;;;2.50;99.90;;;;;;4968516;28;20463;-74
2023/01/21 03:12:34;;;;;;;33.42;20.75;;;2.60;99.90;;;;;;4964296;28;20047;-74
2023/01/21 03:18:21;;;;;;;33.17;19.25;;;2.60;99.90;;;;;;4961840;28;20043;-75
2023/01/21 03:20:55;;;;;;;34.28;21.33;;;2.50;99.90;;;;;;4971917;28;20134;-74
2023/01/21 03:23:29;;;;;;;28.65;19.33;;;2.50;99.90;;;;;;4971989;28;20236;-75
2023/01/21 03:25:58;;;;;;;30.40;19.38;;;2.50;99.90;;;;;;4971689;28;20039;-76
2023/01/21 03:28:28;;;;;;;32.72;20.67;;;2.30;99.90;;;;;;4971453;28;20031;-76
2023/01/21 03:31:01;;;;;;;37.25;23.63;;;2.40;99.90;;;;;;4968012;28;20019;-75
2023/01/21 03:33:32;;;;;;;41.42;26.10;;;2.40;99.90;;;;;;4971904;28;20101;-74
2023/01/21 03:36:03;;;;;;;40.83;24.13;;;2.40;99.90;;;;;;4970924;28;20114;-73
2023/01/21 03:38:41;;;;;;;34.10;21.70;;;2.40;99.90;;;;;;4970755;28;20053;-74
2023/01/21 03:41:22;;;;;;;32.88;20.55;;;2.30;99.90;;;;;;4971599;28;20482;-74
2023/01/21 03:43:49;;;;;;;34.42;20.85;;;2.30;99.90;;;;;;4967376;28;20027;-74
2023/01/21 03:46:25;;;;;;;32.47;21.60;;;2.30;99.90;;;;;;4970989;28;20479;-73
2023/01/21 03:49:24;;;;;;;35.53;21.73;;;2.30;99.90;;;;;;4971317;28;20054;-74
2023/01/21 03:51:54;;;;;;;36.95;23.25;;;2.30;99.90;;;;;;4948300;28;20098;-76
2023/01/21 03:54:21;;;;;;;34.95;22.05;;;2.20;99.90;;;;;;4971435;28;20055;-74
2023/01/21 03:56:47;;;;;;;31.23;20.85;;;2.10;99.90;;;;;;4971262;28;20046;-73
2023/01/21 03:59:13;;;;;;;33.00;21.00;;;2.00;99.90;;;;;;4970937;28;20027;-74
2023/01/21 04:01:40;;;;;;;37.03;21.88;;;2.00;99.90;;;;;;4970720;28;20035;-74
2023/01/21 04:04:07;;;;;;;35.88;24.50;;;1.90;99.90;;;;;;4971279;28;20038;-73
2023/01/21 04:06:35;;;;;;;35.58;21.83;;;1.90;99.90;;;;;;4971117;28;20506;-73
2023/01/21 04:09:02;;;;;;;32.17;21.98;;;1.90;99.90;;;;;;4971019;28;20043;-74
2023/01/21 04:11:28;;;;;;;33.58;21.70;;;2.00;99.90;;;;;;4970734;28;20140;-73
2023/01/21 04:13:54;;;;;;;36.42;21.30;;;2.10;99.90;;;;;;4970929;28;20109;-74
2023/01/21 04:16:20;;;;;;;32.30;20.65;;;2.10;99.90;;;;;;4970912;28;20031;-73
2023/01/21 04:18:46;;;;;;;33.40;21.90;;;2.10;99.90;;;;;;4970545;28;20098;-73
2023/01/21 04:21:12;;;;;;;32.35;21.77;;;2.00;99.90;;;;;;4970716;28;20031;-75
2023/01/21 04:23:38;;;;;;;33.72;22.85;;;2.10;99.90;;;;;;4970725;28;20035;-74
2023/01/21 04:26:04;;;;;;;35.78;21.60;;;2.10;99.90;;;;;;4970616;28;20103;-75
2023/01/21 04:28:30;;;;;;;33.05;20.60;;;2.10;99.90;;;;;;4984373;28;20034;-74
2023/01/21 04:30:56;;;;;;;36.53;21.38;;;2.10;99.90;;;;;;4992214;28;20072;-73
2023/01/21 04:33:22;;;;;;;35.33;22.02;;;2.10;99.90;;;;;;5030876;28;20095;-76
2023/01/21 04:35:47;;;;;;;36.65;22.27;;;2.20;99.90;;;;;;5003496;28;20029;-73
2023/01/21 04:38:14;;;;;;;37.13;23.80;;;2.20;99.90;;;;;;5026162;28;20066;-73
2023/01/21 04:40:40;;;;;;;35.58;23.48;;;2.10;99.90;;;;;;4991694;28;20149;-73
2023/01/21 04:43:07;;;;;;;38.47;24.55;;;2.10;99.90;;;;;;4999343;28;20023;-73
2023/01/21 04:45:33;;;;;;;32.85;22.88;;;2.00;99.90;;;;;;4991673;28;20026;-74
2023/01/21 04:47:59;;;;;;;36.83;22.83;;;2.00;99.90;;;;;;4996001;28;20046;-75
2023/01/21 04:50:24;;;;;;;35.25;22.83;;;2.00;99.90;;;;;;4992032;28;20035;-75
2023/01/21 04:52:50;;;;;;;35.72;22.10;;;2.00;99.90;;;;;;4999480;28;20462;-73
2023/01/21 04:55:16;;;;;;;34.17;23.83;;;1.90;99.90;;;;;;4995543;28;20029;-72
2023/01/21 04:57:42;;;;;;;40.00;24.27;;;2.00;99.90;;;;;;4991457;28;20433;-73
2023/01/21 05:00:08;;;;;;;38.28;24.50;;;2.00;99.90;;;;;;4990604;28;20015;-73
2023/01/21 05:02:34;;;;;;;43.30;26.67;;;2.00;99.90;;;;;;4990899;28;20041;-73
2023/01/21 05:05:00;;;;;;;46.42;28.85;;;2.00;99.90;;;;;;4991089;28;20015;-75
2023/01/21 05:07:26;;;;;;;38.08;26.73;;;2.00;99.90;;;;;;4990747;28;20109;-73
2023/01/21 05:09:52;;;;;;;36.45;24.35;;;2.00;99.90;;;;;;4998919;28;20058;-72
2023/01/21 05:12:18;;;;;;;49.50;31.85;;;2.00;99.90;;;;;;4990715;28;20042;-73
2023/01/21 05:14:44;;;;;;;52.22;31.63;;;2.10;99.90;;;;;;4997879;28;20018;-75
2023/01/21 05:17:10;;;;;;;45.28;29.40;;;2.10;99.90;;;;;;4997997;28;20440;-73
2023/01/21 05:19:35;;;;;;;39.58;26.63;;;2.00;99.90;;;;;;4993627;28;20081;-74
2023/01/21 05:22:01;;;;;;;39.45;28.15;;;2.00;99.90;;;;;;4991220;28;20089;-74
2023/01/21 05:24:27;;;;;;;40.78;25.65;;;2.00;99.90;;;;;;4995592;28;20022;-72
2023/01/21 05:26:53;;;;;;;38.20;25.20;;;2.00;99.90;;;;;;4991160;28;20029;-73
2023/01/21 05:29:19;;;;;;;42.97;27.20;;;2.00;99.90;;;;;;4995291;28;20069;-76
2023/01/21 05:31:45;;;;;;;41.42;27.90;;;2.00;99.90;;;;;;5001337;28;20042;-74
2023/01/21 05:34:11;;;;;;;47.70;28.23;;;2.00;99.90;;;;;;4996466;28;20073;-74
2023/01/21 05:36:38;;;;;;;45.35;28.05;;;2.00;99.90;;;;;;4999847;28;20029;-74
2023/01/21 05:39:04;;;;;;;41.58;27.05;;;2.10;99.90;;;;;;4995368;28;20477;-74
2023/01/21 05:41:30;;;;;;;44.15;29.40;;;2.10;99.90;;;;;;4999884;28;20026;-74
2023/01/21 05:43:56;;;;;;;45.20;27.25;;;2.10;99.90;;;;;;5001164;28;20033;-73
2023/01/21 05:46:22;;;;;;;42.90;28.27;;;2.10;99.90;;;;;;5005305;28;20044;-75
2023/01/21 05:48:48;;;;;;;38.40;24.08;;;2.00;99.90;;;;;;5005829;28;20208;-72
2023/01/21 05:51:14;;;;;;;37.97;25.48;;;2.00;99.90;;;;;;5012322;28;20363;-72
2023/01/21 05:53:39;;;;;;;47.20;31.63;;;2.00;99.90;;;;;;5012279;28;20040;-73
2023/01/21 05:56:06;;;;;;;41.92;27.55;;;1.90;99.90;;;;;;5012132;28;20454;-74
2023/01/21 05:58:31;;;;;;;38.45;25.77;;;1.90;99.90;;;;;;5011955;28;20033;-73
2023/01/21 06:00:57;;;;;;;39.40;25.98;;;1.80;99.90;;;;;;5011752;28;20026;-74
2023/01/21 06:03:24;;;;;;;42.15;26.30;;;1.80;99.90;;;;;;5012001;28;20025;-73
2023/01/21 06:05:50;;;;;;;51.65;31.77;;;1.80;99.90;;;;;;5011889;28;20024;-74
2023/01/21 06:08:17;;;;;;;42.00;26.25;;;1.70;99.90;;;;;;5013720;28;20430;-73
2023/01/21 06:10:43;;;;;;;43.72;26.60;;;1.80;99.90;;;;;;5015466;28;20477;-73
2023/01/21 06:13:13;;;;;;;49.20;30.85;;;1.80;99.90;;;;;;5015470;28;20045;-74
2023/01/21 06:15:39;;;;;;;53.83;34.00;;;1.60;99.90;;;;;;5014909;28;20037;-74
2023/01/21 06:18:05;;;;;;;61.83;36.15;;;1.50;99.90;;;;;;5015412;28;20026;-75
2023/01/21 06:20:31;;;;;;;44.38;27.83;;;1.50;99.90;;;;;;5015353;28;20099;-74
2023/01/21 06:22:57;;;;;;;47.17;32.10;;;1.50;99.90;;;;;;5015719;28;20165;-74
2023/01/21 06:25:24;;;;;;;46.40;29.70;;;1.40;99.90;;;;;;5015306;28;20025;-74
2023/01/21 06:27:52;;;;;;;52.03;34.40;;;1.50;99.90;;;;;;5015062;28;20501;-73
2023/01/21 06:30:18;;;;;;;69.28;44.33;;;1.60;99.90;;;;;;5015231;28;20017;-74
2023/01/21 06:32:44;;;;;;;48.00;31.42;;;1.50;99.90;;;;;;5015373;28;20477;-73
2023/01/21 06:35:10;;;;;;;52.20;32.17;;;1.40;99.90;;;;;;5015536;28;20021;-74
2023/01/21 06:37:36;;;;;;;47.90;30.63;;;1.40;99.90;;;;;;5014794;28;20446;-74
2023/01/21 06:40:02;;;;;;;49.35;31.15;;;1.50;99.90;;;;;;5014912;28;20104;-74
2023/01/21 06:42:27;;;;;;;47.80;30.40;;;1.50;99.90;;;;;;5015127;28;20018;-74
2023/01/21 06:44:53;;;;;;;47.90;32.35;;;1.40;99.90;;;;;;5015253;28;20389;-74
2023/01/21 06:47:19;;;;;;;44.03;28.75;;;1.50;99.90;;;;;;5014258;28;20087;-74
2023/01/21 06:49:45;;;;;;;47.47;30.70;;;1.40;99.90;;;;;;5015173;28;20121;-74
2023/01/21 06:52:11;;;;;;;47.30;30.13;;;1.40;99.90;;;;;;5014793;28;20113;-73
2023/01/21 06:54:36;;;;;;;40.33;27.10;;;1.40;99.90;;;;;;5014987;28;20065;-74
2023/01/21 06:57:02;;;;;;;51.03;30.70;;;1.40;99.90;;;;;;5014724;28;20458;-73
2023/01/21 06:59:29;;;;;;;50.20;32.20;;;1.40;99.90;;;;;;5014652;28;20049;-73
2023/01/21 07:01:57;;;;;;;45.58;30.58;;;1.50;99.90;;;;;;5014145;28;20041;-73
2023/01/21 07:04:25;;;;;;;51.88;31.75;;;1.50;99.90;;;;;;5014589;28;20049;-73
2023/01/21 07:06:51;;;;;;;48.08;29.83;;;1.50;99.90;;;;;;5014890;28;20017;-73
2023/01/21 07:09:17;;;;;;;47.47;31.35;;;1.50;99.90;;;;;;5014652;28;20029;-73
2023/01/21 07:11:43;;;;;;;55.33;31.75;;;1.50;99.90;;;;;;5001205;28;20022;-73
2023/01/21 07:14:09;;;;;;;53.63;35.28;;;1.50;99.90;;;;;;5014591;28;20113;-73
2023/01/21 07:16:35;;;;;;;53.90;34.17;;;1.60;99.90;;;;;;5014457;28;20076;-74
2023/01/21 07:19:01;;;;;;;52.13;33.58;;;1.60;99.90;;;;;;5014749;28;20030;-74
2023/01/21 07:21:27;;;;;;;47.83;32.55;;;1.60;99.90;;;;;;5014582;28;20026;-74
2023/01/21 07:23:53;;;;;;;51.35;34.50;;;1.60;99.90;;;;;;5014181;28;20033;-73
2023/01/21 07:26:19;;;;;;;53.47;35.67;;;1.60;99.90;;;;;;5013983;28;20084;-74
2023/01/21 07:28:45;;;;;;;51.40;34.90;;;1.60;99.90;;;;;;5014112;28;20022;-73
2023/01/21 07:31:11;;;;;;;51.20;35.85;;;1.60;99.90;;;;;;5012463;28;20448;-73
2023/01/21 07:33:36;;;;;;;55.95;37.13;;;1.70;99.90;;;;;;5013631;28;20064;-73
2023/01/21 07:36:02;;;;;;;52.28;36.17;;;1.60;99.90;;;;;;5011150;28;20100;-74
2023/01/21 07:38:29;;;;;;;65.55;44.65;;;1.60;99.90;;;;;;5014117;28;20066;-73
2023/01/21 07:40:54;;;;;;;69.82;44.55;;;1.60;99.90;;;;;;5014060;28;20469;-72
2023/01/21 07:43:20;;;;;;;55.67;35.58;;;1.60;99.90;;;;;;5013574;28;20428;-73
2023/01/21 07:45:46;;;;;;;52.10;33.78;;;1.60;99.90;;;;;;5013585;28;20025;-76
2023/01/21 07:48:12;;;;;;;47.60;32.42;;;1.60;99.90;;;;;;5012015;28;20042;-75
2023/01/21 07:50:38;;;;;;;53.33;33.72;;;1.60;99.90;;;;;;5007549;28;20488;-76
2023/01/21 07:53:04;;;;;;;50.70;32.60;;;1.60;99.90;;;;;;5008717;28;20117;-73
2023/01/21 07:55:30;;;;;;;53.17;32.60;;;1.60;99.90;;;;;;5013662;28;20026;-77
2023/01/21 07:57:57;;;;;;;51.63;32.88;;;1.60;99.90;;;;;;5013834;28;20053;-74
2023/01/21 08:00:25;;;;;;;49.22;32.67;;;1.50;99.90;;;;;;5013008;28;20072;-74
2023/01/21 08:02:56;;;;;;;50.55;34.80;;;1.60;99.90;;;;;;5011890;28;20022;-75
2023/01/21 08:05:23;;;;;;;57.13;36.67;;;1.60;99.90;;;;;;5013634;28;20503;-74
2023/01/21 08:07:49;;;;;;;59.92;37.03;;;1.60;99.90;;;;;;5013184;28;20026;-73
2023/01/21 08:10:16;;;;;;;54.38;36.70;;;1.60;99.90;;;;;;5013446;28;20072;-75
2023/01/21 08:12:42;;;;;;;51.47;33.60;;;1.60;99.90;;;;;;5013134;28;20041;-74
2023/01/21 08:15:09;;;;;;;56.90;37.88;;;1.60;99.90;;;;;;5013697;28;20032;-74
2023/01/21 08:17:39;;;;;;;59.17;36.53;;;1.60;99.90;;;;;;5012981;28;20058;-73
2023/01/21 08:20:06;;;;;;;58.00;36.40;;;1.70;99.90;;;;;;5014628;28;20128;-72
2023/01/21 08:22:32;;;;;;;50.17;34.00;;;1.70;99.90;;;;;;5016327;28;20030;-75
2023/01/21 08:24:58;;;;;;;72.75;48.60;;;1.60;99.90;;;;;;5014315;28;20014;-77
2023/01/21 08:27:24;;;;;;;64.22;42.53;;;1.70;99.90;;;;;;5015519;28;20483;-75
2023/01/21 08:29:49;;;;;;;57.30;37.15;;;1.70;99.90;;;;;;5012361;28;20041;-73
2023/01/21 08:32:15;;;;;;;52.60;36.42;;;1.70;99.90;;;;;;5012234;28;20040;-77
2023/01/21 08:34:41;;;;;;;52.35;35.63;;;1.70;99.90;;;;;;5012977;28;20088;-72
2023/01/21 08:37:07;;;;;;;59.60;39.95;;;1.60;99.90;;;;;;5012729;28;20069;-73
2023/01/21 08:39:33;;;;;;;57.38;36.97;;;1.70;99.90;;;;;;5012755;28;20030;-72
2023/01/21 08:41:59;;;;;;;48.67;31.20;;;1.70;99.90;;;;;;5012014;28;20028;-76
2023/01/21 08:44:25;;;;;;;53.33;36.03;;;1.50;99.90;;;;;;5012965;28;20014;-73
2023/01/21 08:46:51;;;;;;;55.88;37.25;;;1.60;99.90;;;;;;5012149;28;20057;-72
2023/01/21 08:49:17;;;;;;;53.25;37.28;;;1.60;99.90;;;;;;5009694;28;20426;-72
2023/01/21 08:51:43;;;;;;;59.90;44.05;;;1.60;99.90;;;;;;5012474;28;20037;-72
2023/01/21 08:54:08;;;;;;;47.17;30.40;;;1.80;99.90;;;;;;5012901;28;20022;-73
2023/01/21 08:56:34;;;;;;;50.88;32.97;;;1.60;99.90;;;;;;5011546;28;20104;-73
2023/01/21 08:59:01;;;;;;;50.47;33.05;;;1.60;99.90;;;;;;5011980;28;20033;-72
2023/01/21 09:01:28;;;;;;;53.35;36.40;;;1.70;99.90;;;;;;5009751;28;20109;-73
2023/01/21 09:03:58;;;;;;;61.08;40.55;;;1.70;99.90;;;;;;5012055;28;20079;-73
2023/01/21 09:06:27;;;;;;;55.80;35.70;;;1.70;99.90;;;;;;5012563;28;20046;-73
2023/01/21 09:08:54;;;;;;;52.13;34.63;;;1.70;99.90;;;;;;5011991;28;20026;-73
2023/01/21 09:11:20;;;;;;;59.00;38.40;;;1.80;99.90;;;;;;5012292;28;20101;-73
2023/01/21 09:13:46;;;;;;;51.45;34.22;;;1.80;99.90;;;;;;5011903;28;20057;-72
2023/01/21 09:16:17;;;;;;;59.30;36.75;;;1.80;99.90;;;;;;5011673;28;20446;-74
2023/01/21 09:18:43;;;;;;;58.63;36.45;;;1.80;99.90;;;;;;5012269;28;20068;-73
2023/01/21 09:21:10;;;;;;;49.47;33.50;;;1.80;99.90;;;;;;5011576;28;20057;-74
2023/01/21 09:23:37;;;;;;;51.50;33.22;;;1.80;99.90;;;;;;5012411;28;20096;-73
2023/01/21 09:26:07;;;;;;;52.95;35.17;;;1.80;99.90;;;;;;5010771;28;20022;-73
2023/01/21 09:28:37;;;;;;;51.05;32.78;;;1.80;99.90;;;;;;4992477;28;20030;-74
2023/01/21 09:31:09;;;;;;;57.20;34.13;;;1.70;99.90;;;;;;4998579;28;20105;-73
2023/01/21 09:33:38;;;;;;;50.95;31.73;;;1.70;99.90;;;;;;4999718;28;20023;-75
2023/01/21 09:36:06;;;;;;;47.08;31.08;;;1.80;99.90;;;;;;5017696;28;20033;-72
2023/01/21 09:38:32;;;;;;;54.17;35.88;;;1.90;99.90;;;;;;5011848;28;20061;-72
2023/01/21 09:41:20;;;;;;;49.53;31.30;;;1.90;99.90;;;;;;5004594;28;20031;-72
2023/01/21 09:43:52;;;;;;;49.60;30.48;;;2.00;99.90;;;;;;5008321;28;20033;-72
2023/01/21 09:46:49;;;;;;;50.35;32.60;;;2.00;99.90;;;;;;5019051;28;20412;-72
2023/01/21 09:49:45;;;;;;;51.65;34.88;;;1.80;99.90;;;;;;5034002;28;20041;-73
2023/01/21 09:52:20;;;;;;;59.97;36.83;;;1.90;99.90;;;;;;5019628;28;20049;-72
2023/01/21 09:54:46;;;;;;;47.88;31.65;;;1.90;99.90;;;;;;5014556;28;20470;-72
2023/01/21 09:57:20;;;;;;;52.50;32.92;;;1.90;99.90;;;;;;5016748;28;20030;-72
2023/01/21 10:00:01;;;;;;;46.08;30.35;;;1.90;99.90;;;;;;5019394;28;20049;-72
2023/01/21 10:03:11;;;;;;;54.35;34.35;;;1.90;99.90;;;;;;5005520;28;20092;-73
2023/01/21 10:05:46;;;;;;;49.58;33.85;;;2.00;99.90;;;;;;5014116;28;20041;-71
2023/01/21 10:08:29;;;;;;;48.35;30.20;;;2.00;99.90;;;;;;5029732;28;20029;-71
2023/01/21 10:10:58;;;;;;;;;;;2.10;99.90;;;;;;5032353;28;20046;-72
2023/01/21 10:13:49;;;;;;;52.90;33.72;;;2.00;99.90;;;;;;4997134;28;19913;-73
2023/01/21 10:16:21;;;;;;;56.67;35.97;;;2.00;99.90;;;;;;5041873;28;20029;-72
2023/01/21 10:18:49;;;;;;;55.05;37.08;;;2.10;99.90;;;;;;5045755;23;20139;-72
2023/01/21 10:21:36;;;;;;;49.92;30.17;;;2.10;99.90;;;;;;5054581;28;20025;-72
2023/01/21 10:24:28;;;;;;;53.45;32.90;;;1.80;99.90;;;;;;5066148;28;20041;-78
2023/01/21 10:26:55;;;;;;;53.85;32.30;;;1.80;99.90;;;;;;5047363;28;20029;-73
2023/01/21 10:29:24;;;;;;;51.35;32.72;;;1.90;99.90;;;;;;5045457;28;20021;-71
2023/01/21 10:31:59;;;;;;;53.05;32.85;;;1.80;99.90;;;;;;5061474;28;20030;-72
2023/01/21 10:34:30;;;;;;;51.17;33.47;;;1.80;99.90;;;;;;5050260;28;20032;-72
2023/01/21 10:37:27;;;;;;;47.33;32.17;;;1.80;99.90;;;;;;5043722;28;20508;-73
2023/01/21 10:40:06;;;;;;;57.28;37.47;;;1.80;99.90;;;;;;5033568;28;20041;-72
2023/01/21 10:42:33;;;;;;;56.88;35.35;;;1.80;99.90;;;;;;5050463;28;20033;-75
2023/01/21 10:45:19;;;;;;;51.92;34.20;;;1.80;99.90;;;;;;5052839;28;20039;-75
2023/01/21 10:48:11;;;;;;;55.35;35.75;;;1.80;99.90;;;;;;5053828;28;20480;-71
2023/01/21 10:50:48;;;;;;;54.25;35.38;;;1.90;99.90;;;;;;5051103;28;20029;-72
2023/01/21 10:53:27;;;;;;;54.35;33.30;;;1.80;99.90;;;;;;5038388;28;20033;-76
2023/01/21 10:56:40;;;;;;;57.10;35.25;;;2.00;99.90;;;;;;5053267;28;20362;-71
2023/01/21 10:59:11;;;;;;;52.38;33.58;;;2.00;99.90;;;;;;5002847;28;20033;-75
2023/01/21 11:01:46;;;;;;;60.40;38.05;;;2.00;99.90;;;;;;4998091;28;20367;-76
2023/01/21 11:04:17;;;;;;;62.35;38.35;;;1.90;99.90;;;;;;4996701;28;20402;-76
2023/01/21 11:06:46;;;;;;;54.20;34.60;;;1.90;99.90;;;;;;4995529;28;20096;-73
2023/01/21 11:09:13;;;;;;;57.10;35.28;;;1.80;99.90;;;;;;4977608;28;20036;-76
2023/01/21 11:11:41;;;;;;;59.42;38.13;;;1.90;99.90;;;;;;4992489;28;20045;-71
2023/01/21 11:14:08;;;;;;;58.03;37.65;;;1.90;99.90;;;;;;4991893;28;20029;-75
2023/01/21 11:16:48;;;;;;;53.03;36.10;;;2.00;99.90;;;;;;4993571;28;20395;-74
2023/01/21 11:19:23;;;;;;;66.47;41.70;;;2.00;99.90;;;;;;4995697;28;20043;-77
2023/01/21 11:22:26;;;;;;;61.55;40.50;;;2.00;99.90;;;;;;4993062;28;20042;-77
2023/01/21 11:24:52;;;;;;;63.15;38.70;;;2.10;99.90;;;;;;4993114;28;20431;-73
2023/01/21 11:27:21;;;;;;;62.63;39.13;;;2.10;99.90;;;;;;4988892;28;20085;-73
2023/01/21 11:29:49;;;;;;;64.60;42.70;;;2.10;99.90;;;;;;4983590;28;20042;-73
2023/01/21 11:32:22;;;;;;;59.90;39.53;;;2.00;99.90;;;;;;4992038;28;20434;-71
2023/01/21 11:35:00;;;;;;;54.47;37.53;;;2.10;99.90;;;;;;4997706;28;20045;-74
2023/01/21 11:37:28;;;;;;;58.90;39.95;;;2.00;99.90;;;;;;5053600;28;20025;-73
2023/01/21 11:40:00;;;;;;;61.75;40.33;;;1.90;99.90;;;;;;5050768;28;20464;-75
2023/01/21 11:42:26;;;;;;;69.05;41.03;;;2.10;99.90;;;;;;5056239;28;20028;-72
2023/01/21 11:45:03;;;;;;;63.58;41.47;;;2.10;99.90;;;;;;5047422;28;20036;-75
2023/01/21 11:47:37;;;;;;;58.08;36.33;;;2.10;99.90;;;;;;5035428;28;20441;-73
2023/01/21 11:50:25;;;;;;;57.50;37.60;;;2.10;99.90;;;;;;5052463;28;20020;-72
2023/01/21 11:53:10;;;;;;;65.53;42.97;;;2.00;99.90;;;;;;5052267;28;20037;-72
2023/01/21 11:55:52;;;;;;;62.00;41.17;;;2.10;99.90;;;;;;5053238;28;20040;-73
2023/01/21 11:58:23;;;;;;;56.70;35.70;;;2.00;99.90;;;;;;5045415;28;20370;-76
2023/01/21 12:00:55;;;;;;;62.22;37.70;;;2.10;99.90;;;;;;5052116;28;20021;-76
2023/01/21 12:03:25;;;;;;;57.25;35.92;;;2.00;99.90;;;;;;5045543;28;20036;-73
2023/01/21 12:05:52;;;;;;;63.33;37.75;;;2.00;99.90;;;;;;5031460;28;20022;-74
2023/01/21 12:08:24;;;;;;;69.75;43.80;;;2.00;99.90;;;;;;5058058;28;20049;-74
2023/01/21 12:10:52;;;;;;;78.10;48.42;;;2.10;99.90;;;;;;5053034;28;20502;-72
2023/01/21 12:13:21;;;;;;;75.70;47.38;;;2.20;99.90;;;;;;5056427;28;20166;-76
2023/01/21 12:16:07;;;;;;;72.82;41.17;;;2.20;99.90;;;;;;5043267;28;20032;-73
2023/01/21 12:18:52;;;;;;;68.00;42.33;;;2.10;99.90;;;;;;5047135;28;20484;-73
2023/01/21 12:21:32;;;;;;;58.22;34.90;;;2.20;99.90;;;;;;5066548;28;20025;-74
2023/01/21 12:24:23;;;;;;;76.22;46.13;;;2.10;99.90;;;;;;5051776;28;20385;-77
2023/01/21 12:27:06;;;;;;;63.45;37.42;;;2.20;99.90;;;;;;5052988;28;20037;-74
2023/01/21 12:29:55;;;;;;;54.50;34.30;;;2.20;99.90;;;;;;5061925;28;20041;-76
2023/01/21 12:32:36;;;;;;;67.47;40.17;;;2.20;99.90;;;;;;5054595;28;20037;-75
2023/01/21 12:35:07;;;;;;;65.68;36.55;;;2.10;99.90;;;;;;5052842;28;20029;-74
2023/01/21 12:37:47;;;;;;;60.13;38.15;;;2.10;99.90;;;;;;5052482;28;20036;-76
2023/01/21 12:40:35;;;;;;;63.67;39.88;;;2.20;99.90;;;;;;5045478;28;20064;-74
2023/01/21 12:43:10;;;;;;;58.08;37.00;;;2.30;99.90;;;;;;5050755;28;20029;-76
2023/01/21 12:45:40;;;;;;;71.13;43.47;;;2.40;99.90;;;;;;5052425;28;20025;-75
2023/01/21 12:48:10;;;;;;;63.70;39.28;;;2.30;99.90;;;;;;5046249;28;20033;-74
2023/01/21 12:50:44;;;;;;;66.72;38.55;;;2.30;99.90;;;;;;5049009;28;20119;-72
2023/01/21 12:53:39;;;;;;;64.68;37.67;;;2.40;99.90;;;;;;5048175;28;20039;-73
2023/01/21 12:56:26;;;;;;;65.93;39.17;;;2.50;99.90;;;;;;5050010;28;20044;-75
2023/01/21 12:59:38;;;;;;;56.10;34.83;;;2.40;99.90;;;;;;5044162;28;20130;-76
2023/01/21 13:02:22;;;;;;;61.17;37.55;;;2.50;99.90;;;;;;5024874;28;20100;-73